Time;durP1;ratioP1;P1;durP2;ratioP2;P2;SDS_P1;SDS_P2;PMS_P1;PMS_P2;Temp;Humidity;BMP_temperature;BMP_pressure;BME280_temperature;BME280_humidity;BME280_pressure;Samples;Min_cycle;Max_cycle;Signal;HPM_P1;HPM_P2
2021/11/28 00:01:13;;;;;;;6.07;2.70;;;1.00;94.40;;;;;;5025012;28;20025;-76
2021/11/28 00:03:38;;;;;;;7.63;3.33;;;1.00;95.30;;;;;;5029883;28;20076;-76
2021/11/28 00:06:09;;;;;;;6.22;2.30;;;1.00;95.70;;;;;;5030586;28;20025;-76
2021/11/28 00:11:36;;;;;;;7.47;2.60;;;1.00;95.10;;;;;;5004842;28;20120;-75
2021/11/28 00:16:28;;;;;;;6.18;2.58;;;1.00;95.20;;;;;;5027615;28;20096;-75
2021/11/28 00:18:54;;;;;;;9.25;4.25;;;1.20;94.10;;;;;;5031659;28;20411;-76
2021/11/28 00:21:20;;;;;;;9.80;4.25;;;1.20;93.90;;;;;;5028873;28;20315;-76
2021/11/28 00:23:46;;;;;;;12.18;3.08;;;1.20;94.40;;;;;;5028232;28;20377;-76
2021/11/28 00:26:12;;;;;;;6.22;3.03;;;1.20;94.30;;;;;;5023172;28;20083;-76
2021/11/28 00:28:39;;;;;;;5.00;2.38;;;1.10;94.30;;;;;;5029622;28;20031;-76
2021/11/28 00:31:06;;;;;;;6.10;2.58;;;1.10;94.70;;;;;;5023153;28;20072;-75
2021/11/28 00:33:31;;;;;;;6.95;2.92;;;1.10;94.60;;;;;;5029346;28;20117;-76
2021/11/28 00:35:58;;;;;;;7.13;2.35;;;1.10;95.40;;;;;;5027933;28;20478;-76
2021/11/28 00:38:23;;;;;;;8.75;2.60;;;1.00;95.40;;;;;;5026151;28;20025;-76
2021/11/28 00:40:49;;;;;;;7.05;2.85;;;1.00;95.90;;;;;;5026586;28;20025;-76
2021/11/28 00:43:16;;;;;;;7.53;2.63;;;1.00;95.90;;;;;;5021917;28;20026;-75
2021/11/28 00:45:42;;;;;;;7.85;2.30;;;1.00;95.80;;;;;;5030533;28;20040;-76
2021/11/28 00:48:07;;;;;;;6.05;2.08;;;1.00;95.50;;;;;;5027581;28;21607;-75
2021/11/28 00:50:44;;;;;;;8.07;3.00;;;1.10;95.40;;;;;;5025059;28;20037;-76
2021/11/28 00:53:12;;;;;;;5.55;1.95;;;1.00;95.50;;;;;;5021145;28;20112;-75
2021/11/28 00:55:38;;;;;;;7.10;2.50;;;1.00;95.30;;;;;;5028976;28;20039;-76
2021/11/28 00:58:03;;;;;;;7.38;2.50;;;1.00;95.80;;;;;;5029728;28;20112;-75
2021/11/28 01:00:29;;;;;;;7.47;2.90;;;1.00;95.50;;;;;;5023040;28;20452;-75
2021/11/28 01:02:57;;;;;;;6.10;2.28;;;1.00;95.60;;;;;;5025440;28;20079;-76
2021/11/28 01:05:23;;;;;;;7.35;2.40;;;0.90;95.70;;;;;;5016986;28;20056;-75
2021/11/28 01:07:49;;;;;;;5.88;2.22;;;0.90;96.10;;;;;;5009080;28;20109;-75
2021/11/28 01:10:15;;;;;;;4.90;2.10;;;0.90;96.00;;;;;;5011602;28;20033;-75
2021/11/28 01:12:41;;;;;;;7.43;2.08;;;1.00;95.30;;;;;;5014159;28;20026;-75
2021/11/28 01:15:09;;;;;;;6.68;2.40;;;1.00;95.10;;;;;;4999340;28;20038;-75
2021/11/28 01:17:35;;;;;;;4.90;2.20;;;1.00;95.20;;;;;;5012150;28;20030;-75
2021/11/28 01:20:03;;;;;;;6.63;2.20;;;1.00;95.30;;;;;;5014088;28;20315;-76
2021/11/28 01:22:29;;;;;;;7.72;2.45;;;1.00;95.40;;;;;;5005051;28;20026;-75
2021/11/28 01:24:55;;;;;;;4.32;1.77;;;1.00;95.30;;;;;;5006883;28;20046;-76
2021/11/28 01:27:20;;;;;;;4.38;2.03;;;1.00;95.10;;;;;;5005210;28;20054;-75
2021/11/28 01:29:46;;;;;;;4.35;1.95;;;1.10;94.20;;;;;;5006722;28;20033;-75
2021/11/28 01:32:13;;;;;;;5.50;1.83;;;1.10;94.30;;;;;;5013781;28;20026;-75
2021/11/28 01:34:42;;;;;;;4.90;1.80;;;1.10;94.40;;;;;;5001432;28;20025;-75
2021/11/28 01:37:07;;;;;;;6.38;1.92;;;1.10;94.60;;;;;;5004437;28;20022;-75
2021/11/28 01:39:34;;;;;;;6.80;2.20;;;1.10;94.90;;;;;;5002192;28;20026;-76
2021/11/28 01:42:00;;;;;;;6.30;2.20;;;1.10;95.10;;;;;;4995917;28;20023;-75
2021/11/28 01:44:26;;;;;;;5.07;2.28;;;1.00;95.10;;;;;;5013831;28;20057;-75
2021/11/28 01:46:51;;;;;;;5.95;2.00;;;1.00;95.60;;;;;;5005750;28;20029;-75
2021/11/28 01:49:21;;;;;;;4.75;1.77;;;1.00;95.50;;;;;;5015068;28;20033;-75
2021/11/28 01:51:47;;;;;;;5.85;2.45;;;0.90;95.60;;;;;;5010568;28;20030;-76
2021/11/28 01:54:14;;;;;;;11.65;2.28;;;0.90;95.80;;;;;;4996073;28;20068;-75
2021/11/28 01:56:46;;;;;;;5.00;2.20;;;0.90;95.90;;;;;;5012098;28;20030;-74
2021/11/28 01:59:14;;;;;;;4.85;2.03;;;0.90;96.90;;;;;;5011465;28;20061;-74
2021/11/28 02:01:40;;;;;;;6.45;1.90;;;0.80;96.60;;;;;;5006823;28;20607;-75
2021/11/28 02:04:09;;;;;;;8.60;2.13;;;0.90;96.10;;;;;;5016308;28;20030;-76
2021/11/28 02:06:37;;;;;;;5.45;2.10;;;0.90;95.40;;;;;;5017732;28;20110;-75
2021/11/28 02:09:04;;;;;;;6.50;2.08;;;1.00;95.20;;;;;;5012599;28;20037;-76
2021/11/28 02:11:30;;;;;;;5.50;2.08;;;1.00;95.60;;;;;;5013555;28;20182;-76
2021/11/28 02:13:56;;;;;;;5.25;2.20;;;0.90;96.70;;;;;;5010287;28;20112;-75
2021/11/28 02:16:21;;;;;;;6.22;2.35;;;0.80;97.60;;;;;;5007533;28;20068;-76
2021/11/28 02:18:50;;;;;;;7.97;2.65;;;0.80;96.70;;;;;;5014907;28;20028;-76
2021/11/28 02:21:16;;;;;;;3.88;2.08;;;0.80;96.30;;;;;;5018697;28;20010;-75
2021/11/28 02:23:42;;;;;;;5.78;2.33;;;0.90;95.80;;;;;;5014403;28;20029;-75
2021/11/28 02:26:14;;;;;;;7.47;2.70;;;1.00;95.40;;;;;;5017269;28;20049;-75
2021/11/28 02:28:41;;;;;;;7.38;2.90;;;1.10;95.00;;;;;;5010266;28;20022;-75
2021/11/28 02:31:07;;;;;;;7.75;2.67;;;1.10;94.90;;;;;;5007857;28;20026;-76
2021/11/28 02:33:39;;;;;;;7.22;2.58;;;1.10;94.50;;;;;;5012553;28;20029;-75
2021/11/28 02:36:05;;;;;;;4.88;2.20;;;1.10;94.80;;;;;;5017204;28;20105;-75
2021/11/28 02:38:32;;;;;;;7.03;2.85;;;1.20;94.90;;;;;;5012872;28;20315;-75
2021/11/28 02:40:57;;;;;;;8.38;2.47;;;1.10;95.10;;;;;;5006625;28;20026;-75
2021/11/28 02:43:25;;;;;;;7.00;2.70;;;1.10;95.50;;;;;;5016873;28;20025;-76
2021/11/28 02:45:51;;;;;;;5.95;2.42;;;1.10;95.40;;;;;;5016517;28;20360;-75
2021/11/28 02:48:18;;;;;;;6.30;3.08;;;1.10;95.60;;;;;;5011483;28;20035;-76
2021/11/28 02:50:44;;;;;;;5.05;2.60;;;1.10;95.40;;;;;;5015623;28;20072;-75
2021/11/28 02:53:11;;;;;;;6.30;2.83;;;1.10;95.50;;;;;;4998617;28;20028;-75
2021/11/28 02:55:45;;;;;;;5.53;2.38;;;1.00;95.80;;;;;;5016643;28;20037;-75
2021/11/28 02:58:14;;;;;;;5.95;2.50;;;1.10;95.40;;;;;;5007143;28;20030;-76
2021/11/28 03:00:48;;;;;;;7.45;2.70;;;1.10;95.50;;;;;;5009785;28;20312;-75
2021/11/28 03:03:14;;;;;;;7.63;2.72;;;1.10;95.50;;;;;;5012777;28;20026;-76
2021/11/28 03:05:39;;;;;;;9.63;2.88;;;1.10;95.50;;;;;;5013433;28;20103;-75
2021/11/28 03:08:05;;;;;;;5.57;2.20;;;1.10;95.40;;;;;;5015303;28;20022;-75
2021/11/28 03:10:43;;;;;;;5.55;2.45;;;1.10;95.80;;;;;;5008623;28;20032;-75
2021/11/28 03:13:17;;;;;;;7.13;2.85;;;1.10;95.80;;;;;;5007029;28;20027;-76
2021/11/28 03:15:43;;;;;;;6.57;2.33;;;1.10;96.20;;;;;;5011363;28;20022;-76
2021/11/28 03:18:13;;;;;;;8.32;2.58;;;1.00;96.40;;;;;;5007926;28;20045;-75
2021/11/28 03:20:40;;;;;;;6.72;2.60;;;1.00;96.30;;;;;;5013716;28;20052;-75
2021/11/28 03:23:07;;;;;;;8.73;2.95;;;1.00;96.60;;;;;;5003768;28;20325;-75
2021/11/28 03:25:33;;;;;;;7.75;2.75;;;1.00;96.50;;;;;;5005275;28;20109;-76
2021/11/28 03:27:59;;;;;;;5.93;2.47;;;1.00;96.40;;;;;;5006806;28;20370;-75
2021/11/28 03:30:25;;;;;;;6.75;2.40;;;1.00;96.70;;;;;;5001225;28;20469;-75
2021/11/28 03:32:51;;;;;;;5.57;2.33;;;0.90;96.70;;;;;;5014442;28;20026;-74
2021/11/28 03:35:18;;;;;;;5.97;2.50;;;0.90;97.20;;;;;;5011261;28;20575;-75
2021/11/28 03:37:44;;;;;;;7.35;2.78;;;0.90;97.40;;;;;;5014004;28;20321;-76
2021/11/28 03:40:12;;;;;;;6.82;2.63;;;0.90;97.60;;;;;;5003594;28;20453;-75
2021/11/28 03:42:38;;;;;;;6.60;2.60;;;0.90;97.40;;;;;;5012604;28;20049;-75
2021/11/28 03:45:10;;;;;;;6.07;2.58;;;0.90;97.30;;;;;;5007177;28;20022;-75
2021/11/28 03:47:36;;;;;;;8.63;2.40;;;0.90;97.50;;;;;;5012260;28;20029;-75
2021/11/28 03:50:05;;;;;;;6.00;2.67;;;0.90;97.30;;;;;;5013752;28;20097;-75
2021/11/28 03:52:31;;;;;;;5.70;2.55;;;0.90;97.50;;;;;;5012623;28;20319;-75
2021/11/28 03:54:56;;;;;;;6.32;2.75;;;1.00;97.10;;;;;;5012984;28;20025;-75
2021/11/28 03:57:22;;;;;;;6.75;2.90;;;0.90;97.10;;;;;;5013705;28;20026;-75
2021/11/28 03:59:48;;;;;;;4.93;2.22;;;0.90;97.50;;;;;;5008926;28;20030;-75
2021/11/28 04:02:14;;;;;;;6.32;2.78;;;0.80;98.00;;;;;;5001526;28;20025;-75
2021/11/28 04:04:39;;;;;;;6.70;2.72;;;0.80;98.00;;;;;;5012636;28;20037;-75
2021/11/28 04:07:05;;;;;;;7.65;2.95;;;0.80;98.00;;;;;;5002179;28;20019;-75
2021/11/28 04:09:31;;;;;;;5.82;2.80;;;0.80;98.00;;;;;;5012868;28;20061;-75
2021/11/28 04:11:56;;;;;;;6.43;2.90;;;0.80;98.00;;;;;;5008476;28;20037;-75
2021/11/28 04:14:22;;;;;;;6.47;2.60;;;0.70;98.00;;;;;;5013855;28;20041;-75
2021/11/28 04:16:48;;;;;;;7.18;2.67;;;0.60;98.00;;;;;;5004769;28;20450;-76
2021/11/28 04:19:14;;;;;;;5.47;2.58;;;0.60;98.00;;;;;;5014067;28;20046;-76
2021/11/28 04:21:44;;;;;;;9.10;2.92;;;0.50;98.00;;;;;;5012781;28;20407;-75
2021/11/28 04:24:10;;;;;;;5.82;2.90;;;0.50;98.00;;;;;;4999785;28;20021;-74
2021/11/28 04:26:36;;;;;;;5.30;2.80;;;0.50;98.00;;;;;;5014815;28;20400;-75
2021/11/28 04:29:01;;;;;;;7.95;2.90;;;0.40;98.00;;;;;;5005338;28;20451;-75
2021/11/28 04:31:27;;;;;;;6.30;3.22;;;0.40;98.00;;;;;;5008144;28;20422;-75
2021/11/28 04:33:53;;;;;;;6.47;3.40;;;0.40;98.00;;;;;;5008294;28;20030;-75
2021/11/28 04:36:18;;;;;;;8.65;3.38;;;0.30;98.00;;;;;;5003019;28;20427;-75
2021/11/28 04:38:44;;;;;;;10.55;5.65;;;0.40;98.00;;;;;;4997572;28;20019;-74
2021/11/28 04:41:10;;;;;;;10.63;5.20;;;0.30;98.00;;;;;;5004765;28;20038;-75
2021/11/28 04:43:36;;;;;;;9.10;4.30;;;0.20;98.00;;;;;;5010099;28;20053;-76
2021/11/28 04:46:01;;;;;;;7.93;5.00;;;0.20;98.00;;;;;;5006399;28;20042;-75
2021/11/28 04:48:27;;;;;;;7.63;4.60;;;0.10;98.00;;;;;;5013380;28;20299;-74
2021/11/28 04:50:53;;;;;;;8.95;4.53;;;0.00;98.00;;;;;;5010625;28;20033;-75
2021/11/28 04:53:19;;;;;;;10.98;5.55;;;0.00;98.00;;;;;;5007225;28;20194;-75
2021/11/28 04:55:44;;;;;;;11.63;6.07;;;0.00;98.00;;;;;;5010751;28;20036;-74
2021/11/28 04:58:13;;;;;;;9.27;5.90;;;-0.10;98.00;;;;;;5006547;28;20080;-75
2021/11/28 05:00:39;;;;;;;12.07;6.72;;;-0.10;98.00;;;;;;5009024;28;20029;-76
2021/11/28 05:03:08;;;;;;;13.40;6.07;;;-0.10;98.00;;;;;;5001372;28;20355;-76
2021/11/28 05:05:33;;;;;;;9.57;6.05;;;-0.20;98.00;;;;;;5002823;28;20037;-77
2021/11/28 05:08:02;;;;;;;9.50;5.80;;;-0.30;98.00;;;;;;5010890;28;20327;-76
2021/11/28 05:10:28;;;;;;;10.32;5.40;;;-0.40;98.00;;;;;;5012140;28;20034;-75
2021/11/28 05:12:54;;;;;;;13.93;7.65;;;-0.40;98.00;;;;;;5009695;28;20288;-75
2021/11/28 05:15:20;;;;;;;15.73;8.52;;;-0.30;98.00;;;;;;5001260;28;20546;-75
2021/11/28 05:17:45;;;;;;;11.48;6.78;;;-0.20;98.00;;;;;;4997960;28;20031;-75
2021/11/28 05:20:12;;;;;;;13.68;7.28;;;-0.20;98.00;;;;;;4997512;28;20057;-75
2021/11/28 05:22:41;;;;;;;11.20;6.20;;;-0.30;98.00;;;;;;4996138;28;20034;-75
2021/11/28 05:25:07;;;;;;;8.48;4.90;;;-0.30;98.00;;;;;;4999189;28;20132;-75
2021/11/28 05:27:33;;;;;;;11.13;5.28;;;-0.30;98.00;;;;;;4995248;28;20041;-75
2021/11/28 05:29:59;;;;;;;9.88;5.05;;;-0.20;98.00;;;;;;4995733;28;20030;-75
2021/11/28 05:32:25;;;;;;;8.98;4.85;;;-0.10;98.00;;;;;;5002487;28;20041;-75
2021/11/28 05:34:51;;;;;;;10.43;4.60;;;0.00;98.00;;;;;;5006581;28;20042;-75
2021/11/28 05:37:17;;;;;;;9.07;4.60;;;0.00;98.00;;;;;;5004926;28;20049;-75
2021/11/28 05:39:44;;;;;;;8.45;4.75;;;0.00;98.00;;;;;;5007937;28;20323;-75
2021/11/28 05:42:10;;;;;;;8.32;5.30;;;0.00;98.00;;;;;;5007010;28;20029;-75
2021/11/28 05:44:37;;;;;;;11.38;4.70;;;0.00;98.00;;;;;;5016381;28;20021;-75
2021/11/28 05:47:03;;;;;;;9.35;4.80;;;0.00;98.00;;;;;;5015807;28;20026;-75
2021/11/28 05:49:28;;;;;;;11.90;5.00;;;0.00;98.00;;;;;;5010590;28;20040;-75
2021/11/28 05:51:54;;;;;;;8.98;4.75;;;0.00;98.00;;;;;;5005296;28;20022;-75
2021/11/28 05:54:20;;;;;;;7.78;4.70;;;0.00;98.00;;;;;;5005278;28;20125;-75
2021/11/28 05:56:45;;;;;;;8.18;4.13;;;0.00;98.00;;;;;;5005241;28;20402;-75
2021/11/28 05:59:11;;;;;;;11.23;4.18;;;0.10;98.00;;;;;;5013751;28;20366;-75
2021/11/28 06:01:37;;;;;;;9.90;4.93;;;0.10;98.00;;;;;;5007688;28;20427;-75
2021/11/28 06:04:02;;;;;;;10.68;4.13;;;0.10;98.00;;;;;;5004623;28;20026;-75
2021/11/28 06:06:28;;;;;;;7.72;4.15;;;0.10;98.00;;;;;;5009095;28;20319;-75
2021/11/28 06:08:54;;;;;;;9.60;5.20;;;0.00;98.00;;;;;;5020819;28;20314;-75
2021/11/28 06:11:20;;;;;;;11.70;5.53;;;0.00;98.00;;;;;;5010577;28;20028;-75
2021/11/28 06:13:46;;;;;;;23.92;13.05;;;-0.10;98.00;;;;;;5012323;28;20053;-74
2021/11/28 06:16:12;;;;;;;9.10;4.80;;;-0.20;98.00;;;;;;5012223;28;20034;-74
2021/11/28 06:18:37;;;;;;;11.02;4.13;;;-0.10;98.00;;;;;;5015160;28;20034;-74
2021/11/28 06:21:03;;;;;;;9.20;4.60;;;0.00;98.00;;;;;;5011134;28;20018;-74
2021/11/28 06:23:29;;;;;;;16.73;6.95;;;0.00;98.00;;;;;;5038618;28;20068;-75
2021/11/28 06:25:54;;;;;;;13.18;6.70;;;0.00;98.00;;;;;;5012972;28;20096;-75
2021/11/28 06:28:20;;;;;;;9.73;5.43;;;-0.10;98.00;;;;;;5015910;28;20034;-74
2021/11/28 06:30:46;;;;;;;9.30;5.15;;;-0.20;98.00;;;;;;5015861;28;20037;-75
2021/11/28 06:33:11;;;;;;;11.05;5.88;;;-0.20;98.00;;;;;;5007818;28;20044;-75
2021/11/28 06:35:37;;;;;;;10.70;4.60;;;-0.20;98.00;;;;;;5013783;28;20435;-75
2021/11/28 06:38:03;;;;;;;9.05;5.13;;;-0.20;98.00;;;;;;5001325;28;20018;-75
2021/11/28 06:40:29;;;;;;;10.70;5.57;;;-0.20;98.00;;;;;;5009653;28;20113;-75
2021/11/28 06:42:54;;;;;;;9.20;4.80;;;-0.20;98.00;;;;;;5012874;28;20386;-75
2021/11/28 06:45:20;;;;;;;8.07;4.30;;;-0.20;98.00;;;;;;5008823;28;20072;-75
2021/11/28 06:47:46;;;;;;;9.45;4.70;;;-0.20;98.00;;;;;;5017040;28;20060;-74
2021/11/28 06:50:12;;;;;;;7.50;4.20;;;-0.20;98.00;;;;;;4998555;28;20033;-75
2021/11/28 06:52:38;;;;;;;8.07;4.45;;;-0.20;98.00;;;;;;5002038;28;20030;-75
2021/11/28 06:55:05;;;;;;;10.77;5.55;;;-0.10;98.00;;;;;;5010012;28;20088;-75
2021/11/28 06:57:31;;;;;;;10.15;5.05;;;-0.10;98.00;;;;;;5011702;28;20077;-74
2021/11/28 06:59:57;;;;;;;8.23;3.67;;;0.00;98.00;;;;;;5002618;28;20022;-74
2021/11/28 07:02:23;;;;;;;6.95;3.67;;;0.10;98.00;;;;;;5006282;28;20033;-75
2021/11/28 07:04:48;;;;;;;6.55;3.90;;;0.10;98.00;;;;;;5003612;28;20659;-74
2021/11/28 07:07:14;;;;;;;5.22;3.15;;;0.20;98.00;;;;;;5000240;28;20105;-75
2021/11/28 07:09:40;;;;;;;10.63;6.43;;;0.20;98.00;;;;;;5013499;28;20022;-74
2021/11/28 07:12:06;;;;;;;13.40;6.78;;;0.20;98.00;;;;;;5006171;28;20369;-75
2021/11/28 07:14:31;;;;;;;8.85;4.75;;;0.10;98.00;;;;;;5002745;28;20537;-75
2021/11/28 07:16:57;;;;;;;13.20;5.88;;;0.10;98.00;;;;;;5000603;28;20157;-75
2021/11/28 07:19:23;;;;;;;13.32;7.43;;;0.00;98.00;;;;;;5016835;28;20049;-74
2021/11/28 07:21:50;;;;;;;8.20;4.40;;;0.00;98.00;;;;;;5026300;28;20422;-74
2021/11/28 07:24:15;;;;;;;8.90;5.18;;;0.10;98.00;;;;;;5004486;28;20104;-75
2021/11/28 07:26:41;;;;;;;11.00;5.88;;;0.10;98.00;;;;;;5011455;28;20078;-74
2021/11/28 07:29:07;;;;;;;10.63;5.82;;;0.10;98.00;;;;;;5007906;28;20092;-75
2021/11/28 07:31:32;;;;;;;11.82;7.53;;;0.10;98.00;;;;;;5007811;28;20030;-74
2021/11/28 07:33:58;;;;;;;11.32;7.00;;;0.10;98.00;;;;;;5015739;28;20030;-75
2021/11/28 07:36:24;;;;;;;14.82;8.70;;;0.10;98.00;;;;;;5004682;28;20062;-75
2021/11/28 07:38:50;;;;;;;15.15;8.32;;;0.10;98.00;;;;;;5008529;28;20465;-75
2021/11/28 07:41:15;;;;;;;6.65;3.35;;;0.20;98.00;;;;;;5007441;28;20099;-74
2021/11/28 07:43:41;;;;;;;10.80;5.88;;;0.30;98.00;;;;;;5015507;28;20366;-74
2021/11/28 07:46:07;;;;;;;9.27;4.70;;;0.40;98.00;;;;;;5009122;28;20057;-74
2021/11/28 07:48:33;;;;;;;10.20;6.38;;;0.50;98.00;;;;;;4997647;28;20026;-74
2021/11/28 07:50:58;;;;;;;11.48;6.55;;;0.50;98.00;;;;;;4999380;28;20030;-74
2021/11/28 07:53:25;;;;;;;9.80;5.65;;;0.60;98.00;;;;;;4996334;28;20513;-76
2021/11/28 07:55:51;;;;;;;9.13;5.50;;;0.60;98.00;;;;;;5000725;28;20029;-75
2021/11/28 07:58:17;;;;;;;10.70;5.78;;;0.70;98.00;;;;;;4996490;28;20026;-75
2021/11/28 08:00:42;;;;;;;13.52;6.90;;;0.70;98.00;;;;;;5000022;28;20029;-74
2021/11/28 08:03:08;;;;;;;10.13;5.90;;;0.80;98.00;;;;;;4999288;28;20068;-75
2021/11/28 08:05:34;;;;;;;10.45;5.05;;;0.90;98.00;;;;;;5013487;28;20029;-76
2021/11/28 08:07:59;;;;;;;12.38;5.07;;;1.00;98.00;;;;;;4999104;28;20153;-75
2021/11/28 08:10:26;;;;;;;12.30;6.38;;;1.10;98.00;;;;;;4997786;28;20030;-74
2021/11/28 08:12:52;;;;;;;9.27;4.03;;;1.10;98.00;;;;;;5015858;28;20026;-74
2021/11/28 08:15:19;;;;;;;9.10;4.88;;;1.10;98.00;;;;;;5014077;28;20083;-75
2021/11/28 08:17:47;;;;;;;18.20;9.70;;;1.10;98.00;;;;;;5009495;28;20415;-74
2021/11/28 08:20:15;;;;;;;11.65;6.22;;;1.20;98.00;;;;;;4997137;28;20041;-74
2021/11/28 08:22:41;;;;;;;12.48;5.75;;;1.40;98.00;;;;;;5008214;28;20069;-75
2021/11/28 08:25:10;;;;;;;10.60;5.82;;;1.40;98.00;;;;;;5009787;28;20525;-75
2021/11/28 08:27:36;;;;;;;12.43;5.80;;;1.50;98.00;;;;;;5002901;28;20064;-75
2021/11/28 08:30:05;;;;;;;9.73;4.60;;;1.50;98.00;;;;;;5016488;28;20033;-74
2021/11/28 08:32:31;;;;;;;10.00;4.72;;;1.60;98.00;;;;;;5002366;28;20026;-74
2021/11/28 08:34:56;;;;;;;9.43;5.30;;;1.60;98.00;;;;;;5005181;28;20484;-74
2021/11/28 08:37:22;;;;;;;6.20;3.22;;;1.60;98.00;;;;;;5014152;28;20022;-75
2021/11/28 08:39:48;;;;;;;11.60;3.83;;;1.60;98.00;;;;;;5014296;28;20450;-74
2021/11/28 08:42:13;;;;;;;12.45;6.70;;;1.70;98.00;;;;;;5016111;28;20037;-74
2021/11/28 08:44:39;;;;;;;14.88;7.50;;;1.80;98.00;;;;;;5001152;28;20084;-75
2021/11/28 08:47:06;;;;;;;14.13;6.13;;;1.90;98.00;;;;;;5009129;28;20492;-74
2021/11/28 08:49:32;;;;;;;13.90;7.35;;;1.90;98.00;;;;;;5009799;28;20079;-74
2021/11/28 08:52:01;;;;;;;10.65;5.55;;;2.00;98.00;;;;;;5012239;28;20037;-75
2021/11/28 08:54:30;;;;;;;16.88;8.75;;;2.10;98.00;;;;;;5014356;28;20033;-74
2021/11/28 08:56:56;;;;;;;16.83;9.05;;;2.10;98.00;;;;;;5002492;28;20034;-74
2021/11/28 08:59:22;;;;;;;16.40;9.35;;;2.10;98.00;;;;;;5011820;28;20038;-74
2021/11/28 09:01:48;;;;;;;21.35;11.52;;;2.20;98.00;;;;;;5011064;28;20025;-75
2021/11/28 09:04:13;;;;;;;21.63;12.15;;;2.10;98.00;;;;;;5015785;28;20025;-74
2021/11/28 09:06:39;;;;;;;16.70;10.13;;;2.20;98.00;;;;;;5007034;28;20401;-74
2021/11/28 09:09:05;;;;;;;14.50;8.70;;;2.30;97.70;;;;;;4999419;28;20036;-74
2021/11/28 09:11:31;;;;;;;12.63;6.70;;;2.40;97.30;;;;;;5005274;28;20427;-74
2021/11/28 09:13:56;;;;;;;12.30;6.13;;;2.60;96.50;;;;;;5003623;28;20326;-74
2021/11/28 09:16:22;;;;;;;13.90;7.88;;;2.60;94.70;;;;;;5007129;28;20037;-75
2021/11/28 09:18:54;;;;;;;12.07;7.22;;;2.50;96.10;;;;;;5012581;28;20064;-75
2021/11/28 09:21:19;;;;;;;10.80;7.10;;;2.40;96.20;;;;;;5007685;28;20030;-74
2021/11/28 09:26:30;;;;;;;12.73;7.60;;;2.50;96.10;;;;;;5003608;28;20180;-74
2021/11/28 09:28:59;;;;;;;10.73;6.63;;;2.60;96.00;;;;;;5004817;28;20026;-75
2021/11/28 09:31:25;;;;;;;15.18;6.88;;;2.60;95.50;;;;;;5000094;28;20029;-74
2021/11/28 09:33:51;;;;;;;8.98;5.43;;;2.80;95.60;;;;;;5014440;28;20033;-75
2021/11/28 09:36:17;;;;;;;7.68;4.88;;;2.80;95.10;;;;;;5015038;28;20434;-75
2021/11/28 09:38:43;;;;;;;6.90;3.80;;;2.90;95.40;;;;;;5005826;28;20081;-74
2021/11/28 09:41:11;;;;;;;5.85;2.83;;;3.00;94.40;;;;;;5010923;28;20026;-74
2021/11/28 09:43:41;;;;;;;4.15;2.22;;;3.00;92.70;;;;;;5008398;28;20476;-75
2021/11/28 09:46:09;;;;;;;4.70;2.10;;;3.20;91.50;;;;;;5009965;28;20026;-74
2021/11/28 09:48:36;;;;;;;4.50;2.20;;;3.20;90.90;;;;;;4997151;28;20057;-74
2021/11/28 09:51:04;;;;;;;5.32;2.53;;;3.30;90.30;;;;;;5005662;28;20104;-74
2021/11/28 09:53:35;;;;;;;5.78;2.47;;;3.40;90.20;;;;;;5004747;28;20113;-74
2021/11/28 09:56:02;;;;;;;4.50;2.35;;;3.20;90.30;;;;;;5004395;28;20058;-75
2021/11/28 09:58:28;;;;;;;6.82;2.78;;;3.10;90.60;;;;;;5009506;28;20018;-74
2021/11/28 10:00:56;;;;;;;4.95;2.60;;;3.10;91.10;;;;;;5010223;28;20095;-75
2021/11/28 10:03:22;;;;;;;8.93;4.25;;;2.90;91.60;;;;;;5014885;28;20026;-74
2021/11/28 10:05:53;;;;;;;8.85;4.20;;;3.10;91.80;;;;;;5012230;28;20033;-75
2021/11/28 10:08:20;;;;;;;6.40;3.78;;;3.20;91.50;;;;;;4994920;28;20033;-75
2021/11/28 10:11:08;;;;;;;9.00;4.03;;;3.10;90.90;;;;;;4997072;28;20026;-75
2021/11/28 10:13:34;;;;;;;8.77;4.88;;;3.00;91.60;;;;;;4997014;28;20058;-75
2021/11/28 10:16:01;;;;;;;14.18;6.38;;;3.10;91.10;;;;;;5013692;28;20061;-74
2021/11/28 10:18:27;;;;;;;19.80;10.35;;;3.10;91.30;;;;;;5010501;28;20352;-75
2021/11/28 10:20:54;;;;;;;17.70;8.05;;;3.00;92.40;;;;;;5012651;28;20149;-75
2021/11/28 10:23:19;;;;;;;11.90;5.72;;;2.90;93.10;;;;;;5016596;28;20029;-75
2021/11/28 10:25:45;;;;;;;9.93;5.30;;;2.90;93.80;;;;;;5006489;28;20046;-74
2021/11/28 10:28:12;;;;;;;13.90;6.07;;;2.90;94.90;;;;;;4999136;28;20029;-75
2021/11/28 10:30:43;;;;;;;15.27;6.63;;;2.90;95.20;;;;;;5011162;28;20033;-75
2021/11/28 10:33:13;;;;;;;20.52;10.77;;;2.90;95.60;;;;;;5010803;28;20030;-75
2021/11/28 10:35:58;;;;;;;11.90;6.53;;;2.90;95.60;;;;;;5017028;28;20148;-74
2021/11/28 10:38:35;;;;;;;13.27;6.50;;;2.80;95.00;;;;;;5016297;28;20029;-74
2021/11/28 10:41:02;;;;;;;16.92;9.00;;;2.60;95.70;;;;;;5014622;28;20021;-74
2021/11/28 10:43:40;;;;;;;20.73;9.75;;;2.60;95.60;;;;;;5004170;28;20026;-76
2021/11/28 10:46:41;;;;;;;14.35;7.60;;;2.50;96.50;;;;;;5000796;28;20723;-75
2021/11/28 10:49:10;;;;;;;12.45;6.28;;;2.50;96.70;;;;;;5019361;28;20124;-75
2021/11/28 10:51:38;;;;;;;10.68;5.65;;;2.40;96.90;;;;;;5006124;28;20026;-75
2021/11/28 10:54:28;;;;;;;13.38;7.47;;;2.20;96.60;;;;;;5011441;28;20030;-75
2021/11/28 10:57:01;;;;;;;10.88;6.00;;;2.10;96.90;;;;;;5014961;28;20033;-75
2021/11/28 10:59:27;;;;;;;10.63;6.07;;;2.10;97.00;;;;;;5013521;28;20397;-75
2021/11/28 11:01:53;;;;;;;14.88;7.22;;;2.10;97.00;;;;;;5017037;28;20053;-74
2021/11/28 11:04:20;;;;;;;11.13;6.03;;;2.00;97.30;;;;;;5019280;28;20053;-75
2021/11/28 11:07:06;;;;;;;9.35;5.57;;;2.00;97.90;;;;;;5015168;28;20036;-75
2021/11/28 11:09:40;;;;;;;8.50;4.80;;;2.10;98.00;;;;;;5009328;28;20077;-75
2021/11/28 11:12:19;;;;;;;9.20;5.03;;;2.20;97.70;;;;;;5014709;28;20453;-75
2021/11/28 11:14:45;;;;;;;10.07;6.05;;;2.30;97.10;;;;;;5000456;28;20034;-75
2021/11/28 11:17:11;;;;;;;10.95;6.00;;;2.30;97.20;;;;;;4998454;28;20320;-75
2021/11/28 11:19:44;;;;;;;15.90;7.85;;;2.30;97.40;;;;;;5016102;28;20030;-75
2021/11/28 11:22:29;;;;;;;12.23;6.13;;;2.50;96.80;;;;;;5003661;28;20037;-75
2021/11/28 11:24:59;;;;;;;10.32;5.88;;;2.60;96.60;;;;;;5000876;28;20022;-75
2021/11/28 11:27:28;;;;;;;9.35;5.72;;;2.70;96.40;;;;;;5016865;28;20014;-76
2021/11/28 11:30:12;;;;;;;10.90;5.72;;;2.90;96.10;;;;;;5007703;28;20031;-75
2021/11/28 11:32:46;;;;;;;9.52;5.57;;;3.00;95.60;;;;;;5028265;28;20030;-74
2021/11/28 11:35:22;;;;;;;12.73;6.05;;;3.10;95.00;;;;;;5012514;28;20037;-75
2021/11/28 11:37:50;;;;;;;9.63;4.93;;;3.10;94.30;;;;;;5005939;28;20030;-74
2021/11/28 11:40:19;;;;;;;10.48;4.68;;;3.10;94.20;;;;;;5017045;28;20368;-75
2021/11/28 11:42:48;;;;;;;9.95;5.57;;;3.30;94.40;;;;;;5016396;28;20033;-75
2021/11/28 11:45:17;;;;;;;10.05;5.25;;;3.50;93.90;;;;;;5004245;28;20030;-74
2021/11/28 11:47:44;;;;;;;7.80;4.82;;;3.60;93.60;;;;;;5012880;28;20030;-74
2021/11/28 11:50:13;;;;;;;8.45;4.55;;;3.90;92.80;;;;;;5014435;28;20025;-75
2021/11/28 11:52:40;;;;;;;13.85;8.10;;;3.80;92.20;;;;;;5023305;28;20125;-75
2021/11/28 11:55:18;;;;;;;10.18;6.00;;;3.70;92.60;;;;;;4997478;28;20061;-75
2021/11/28 11:58:16;;;;;;;8.90;5.45;;;3.70;92.70;;;;;;5002429;28;20026;-76
2021/11/28 12:01:05;;;;;;;14.20;6.35;;;3.60;92.50;;;;;;5016198;28;20052;-74
2021/11/28 12:03:47;;;;;;;7.07;4.53;;;3.60;93.40;;;;;;5017128;28;20296;-76
2021/11/28 12:06:12;;;;;;;8.85;5.47;;;3.60;93.60;;;;;;5016953;28;20030;-74
2021/11/28 12:08:52;;;;;;;9.90;5.15;;;3.50;93.40;;;;;;4999174;28;20032;-75
2021/11/28 12:11:21;;;;;;;9.43;4.43;;;3.20;93.40;;;;;;4997326;28;20052;-74
2021/11/28 12:13:53;;;;;;;9.32;5.72;;;3.00;93.50;;;;;;4998689;28;20030;-74
2021/11/28 12:16:22;;;;;;;14.18;7.82;;;2.80;94.50;;;;;;5002092;28;20053;-76
2021/11/28 12:18:50;;;;;;;8.52;5.28;;;2.80;94.70;;;;;;5015013;28;20076;-74
2021/11/28 12:21:38;;;;;;;8.10;4.95;;;2.60;95.40;;;;;;5010934;28;20087;-74
2021/11/28 12:24:10;;;;;;;8.35;5.38;;;2.60;95.40;;;;;;5012276;28;20022;-73
2021/11/28 12:26:42;;;;;;;8.48;4.85;;;2.70;95.40;;;;;;5010618;28;20102;-75
2021/11/28 12:29:11;;;;;;;9.25;6.13;;;2.70;95.30;;;;;;4998049;28;20030;-74
2021/11/28 12:31:46;;;;;;;7.72;4.38;;;2.80;95.70;;;;;;5012862;28;20021;-75
2021/11/28 12:34:19;;;;;;;10.13;5.65;;;2.70;95.60;;;;;;5012747;28;20364;-75
2021/11/28 12:36:55;;;;;;;9.48;5.75;;;2.80;94.60;;;;;;5012594;28;20026;-74
2021/11/28 12:39:24;;;;;;;13.80;8.45;;;2.80;94.50;;;;;;5005550;28;20089;-75
2021/11/28 12:42:13;;;;;;;15.57;9.35;;;2.60;95.00;;;;;;5002473;28;20022;-76
2021/11/28 12:44:48;;;;;;;16.73;10.75;;;2.50;95.60;;;;;;5001454;28;20103;-75
2021/11/28 12:47:14;;;;;;;30.27;23.92;;;2.30;96.40;;;;;;5003997;28;20026;-75
2021/11/28 12:49:52;;;;;;;12.43;8.60;;;2.20;96.70;;;;;;4994369;28;20037;-74
2021/11/28 12:52:24;;;;;;;8.85;5.55;;;2.20;96.80;;;;;;4998393;28;20030;-74
2021/11/28 12:55:18;;;;;;;8.82;5.07;;;2.30;96.80;;;;;;5001044;28;20025;-74
2021/11/28 12:57:56;;;;;;;9.80;5.00;;;2.40;95.80;;;;;;5004592;28;20153;-74
2021/11/28 13:00:31;;;;;;;6.10;3.65;;;2.40;96.10;;;;;;5009164;28;20030;-75
2021/11/28 13:03:09;;;;;;;6.35;3.88;;;2.40;96.00;;;;;;5009420;28;20025;-74
2021/11/28 13:05:44;;;;;;;41.05;25.05;;;2.50;96.10;;;;;;4998347;28;20407;-75